sensor_id;sensor_type;location;lat;lon;timestamp;P1;durP1;ratioP1;P2;durP2;ratioP2
43670;SDS011;29267;50.906;7.248;2023-06-24T00:02:07;9.40;;;5.90;;
43670;SDS011;29267;50.906;7.248;2023-06-24T00:04:33;16.98;;;6.28;;
43670;SDS011;29267;50.906;7.248;2023-06-24T00:06:59;9.63;;;6.05;;
43670;SDS011;29267;50.906;7.248;2023-06-24T00:09:28;10.05;;;5.47;;
43670;SDS011;29267;50.906;7.248;2023-06-24T00:11:55;10.45;;;5.57;;
43670;SDS011;29267;50.906;7.248;2023-06-24T00:14:21;6.97;;;5.32;;
43670;SDS011;29267;50.906;7.248;2023-06-24T00:16:52;7.68;;;5.45;;
43670;SDS011;29267;50.906;7.248;2023-06-24T00:19:19;7.85;;;5.32;;
43670;SDS011;29267;50.906;7.248;2023-06-24T00:21:46;9.52;;;5.00;;
43670;SDS011;29267;50.906;7.248;2023-06-24T00:24:12;7.68;;;4.75;;
43670;SDS011;29267;50.906;7.248;2023-06-24T00:26:38;7.82;;;5.85;;
43670;SDS011;29267;50.906;7.248;2023-06-24T00:29:03;7.80;;;5.80;;
43670;SDS011;29267;50.906;7.248;2023-06-24T00:31:29;7.80;;;5.32;;
43670;SDS011;29267;50.906;7.248;2023-06-24T00:33:54;11.23;;;6.20;;
43670;SDS011;29267;50.906;7.248;2023-06-24T00:36:20;7.95;;;5.30;;
43670;SDS011;29267;50.906;7.248;2023-06-24T00:38:46;8.48;;;5.50;;
43670;SDS011;29267;50.906;7.248;2023-06-24T00:41:13;8.20;;;5.70;;
43670;SDS011;29267;50.906;7.248;2023-06-24T00:43:41;7.32;;;5.15;;
43670;SDS011;29267;50.906;7.248;2023-06-24T00:46:06;9.98;;;5.43;;
43670;SDS011;29267;50.906;7.248;2023-06-24T00:48:32;11.75;;;5.40;;
43670;SDS011;29267;50.906;7.248;2023-06-24T00:50:58;13.38;;;5.35;;
43670;SDS011;29267;50.906;7.248;2023-06-24T00:53:23;8.10;;;5.90;;
43670;SDS011;29267;50.906;7.248;2023-06-24T00:55:50;8.77;;;5.35;;
43670;SDS011;29267;50.906;7.248;2023-06-24T00:58:17;10.25;;;5.50;;
43670;SDS011;29267;50.906;7.248;2023-06-24T01:00:46;7.53;;;5.50;;
43670;SDS011;29267;50.906;7.248;2023-06-24T01:03:13;9.98;;;5.93;;
43670;SDS011;29267;50.906;7.248;2023-06-24T01:05:45;9.45;;;6.15;;
43670;SDS011;29267;50.906;7.248;2023-06-24T01:08:11;17.00;;;6.10;;
43670;SDS011;29267;50.906;7.248;2023-06-24T01:10:40;8.80;;;5.63;;
43670;SDS011;29267;50.906;7.248;2023-06-24T01:13:06;8.50;;;5.93;;
43670;SDS011;29267;50.906;7.248;2023-06-24T01:15:32;8.77;;;5.57;;
43670;SDS011;29267;50.906;7.248;2023-06-24T01:18:00;10.95;;;6.38;;
43670;SDS011;29267;50.906;7.248;2023-06-24T01:27:11;9.38;;;5.47;;
43670;SDS011;29267;50.906;7.248;2023-06-24T01:29:42;10.15;;;5.75;;
43670;SDS011;29267;50.906;7.248;2023-06-24T01:32:26;7.35;;;5.10;;
43670;SDS011;29267;50.906;7.248;2023-06-24T01:35:02;6.63;;;5.03;;
43670;SDS011;29267;50.906;7.248;2023-06-24T01:37:39;9.90;;;5.28;;
43670;SDS011;29267;50.906;7.248;2023-06-24T01:40:15;13.27;;;5.63;;
43670;SDS011;29267;50.906;7.248;2023-06-24T01:42:59;11.05;;;6.20;;
43670;SDS011;29267;50.906;7.248;2023-06-24T01:45:27;9.18;;;5.55;;
43670;SDS011;29267;50.906;7.248;2023-06-24T01:48:07;8.30;;;5.35;;
43670;SDS011;29267;50.906;7.248;2023-06-24T01:50:38;9.20;;;5.95;;
43670;SDS011;29267;50.906;7.248;2023-06-24T01:53:07;9.05;;;5.32;;
43670;SDS011;29267;50.906;7.248;2023-06-24T01:55:34;12.93;;;5.25;;
43670;SDS011;29267;50.906;7.248;2023-06-24T01:58:02;9.35;;;5.50;;
43670;SDS011;29267;50.906;7.248;2023-06-24T02:00:32;8.93;;;6.32;;
43670;SDS011;29267;50.906;7.248;2023-06-24T02:02:59;8.70;;;5.60;;
43670;SDS011;29267;50.906;7.248;2023-06-24T02:05:26;11.18;;;6.63;;
43670;SDS011;29267;50.906;7.248;2023-06-24T02:07:53;14.60;;;6.38;;
43670;SDS011;29267;50.906;7.248;2023-06-24T02:10:20;11.07;;;6.35;;
43670;SDS011;29267;50.906;7.248;2023-06-24T02:12:48;11.68;;;6.68;;
43670;SDS011;29267;50.906;7.248;2023-06-24T02:15:17;11.38;;;6.07;;
43670;SDS011;29267;50.906;7.248;2023-06-24T02:17:44;10.75;;;6.60;;
43670;SDS011;29267;50.906;7.248;2023-06-24T02:20:12;8.52;;;6.45;;
43670;SDS011;29267;50.906;7.248;2023-06-24T02:22:41;8.82;;;6.05;;
43670;SDS011;29267;50.906;7.248;2023-06-24T02:25:09;9.73;;;5.75;;
43670;SDS011;29267;50.906;7.248;2023-06-24T02:27:35;8.15;;;6.13;;
43670;SDS011;29267;50.906;7.248;2023-06-24T02:30:02;9.35;;;6.75;;
43670;SDS011;29267;50.906;7.248;2023-06-24T02:32:29;9.63;;;6.07;;
43670;SDS011;29267;50.906;7.248;2023-06-24T02:34:56;9.55;;;5.82;;
43670;SDS011;29267;50.906;7.248;2023-06-24T02:37:23;11.73;;;5.90;;
43670;SDS011;29267;50.906;7.248;2023-06-24T02:39:49;11.70;;;6.07;;
43670;SDS011;29267;50.906;7.248;2023-06-24T02:42:15;13.23;;;6.10;;
43670;SDS011;29267;50.906;7.248;2023-06-24T02:44:40;11.40;;;6.13;;
43670;SDS011;29267;50.906;7.248;2023-06-24T02:47:07;8.02;;;5.82;;
43670;SDS011;29267;50.906;7.248;2023-06-24T02:49:36;8.48;;;6.20;;
43670;SDS011;29267;50.906;7.248;2023-06-24T02:52:03;12.20;;;7.22;;
43670;SDS011;29267;50.906;7.248;2023-06-24T02:54:29;7.65;;;5.50;;
43670;SDS011;29267;50.906;7.248;2023-06-24T02:56:55;9.88;;;6.43;;
43670;SDS011;29267;50.906;7.248;2023-06-24T02:59:23;11.10;;;6.75;;
43670;SDS011;29267;50.906;7.248;2023-06-24T03:01:49;10.63;;;6.57;;
43670;SDS011;29267;50.906;7.248;2023-06-24T03:04:19;12.52;;;6.80;;
43670;SDS011;29267;50.906;7.248;2023-06-24T03:06:45;16.05;;;7.57;;
43670;SDS011;29267;50.906;7.248;2023-06-24T03:09:13;8.20;;;5.50;;
43670;SDS011;29267;50.906;7.248;2023-06-24T03:11:41;9.93;;;5.95;;
43670;SDS011;29267;50.906;7.248;2023-06-24T03:14:10;9.43;;;5.75;;
43670;SDS011;29267;50.906;7.248;2023-06-24T03:16:36;8.90;;;6.43;;
43670;SDS011;29267;50.906;7.248;2023-06-24T03:19:03;13.98;;;7.05;;
43670;SDS011;29267;50.906;7.248;2023-06-24T03:21:29;8.90;;;6.32;;
43670;SDS011;29267;50.906;7.248;2023-06-24T03:23:55;11.38;;;6.50;;
43670;SDS011;29267;50.906;7.248;2023-06-24T03:26:21;7.75;;;5.22;;
43670;SDS011;29267;50.906;7.248;2023-06-24T03:28:47;10.95;;;6.20;;
43670;SDS011;29267;50.906;7.248;2023-06-24T03:31:13;14.25;;;6.45;;
43670;SDS011;29267;50.906;7.248;2023-06-24T03:33:40;11.82;;;5.88;;
43670;SDS011;29267;50.906;7.248;2023-06-24T03:36:09;9.07;;;6.43;;
43670;SDS011;29267;50.906;7.248;2023-06-24T03:38:35;12.75;;;6.30;;
43670;SDS011;29267;50.906;7.248;2023-06-24T03:41:01;9.10;;;6.10;;
43670;SDS011;29267;50.906;7.248;2023-06-24T03:43:27;11.77;;;6.15;;
43670;SDS011;29267;50.906;7.248;2023-06-24T03:45:52;12.20;;;5.80;;
43670;SDS011;29267;50.906;7.248;2023-06-24T03:48:18;10.07;;;6.50;;
43670;SDS011;29267;50.906;7.248;2023-06-24T03:50:43;13.77;;;6.30;;
43670;SDS011;29267;50.906;7.248;2023-06-24T03:53:09;11.63;;;6.28;;
43670;SDS011;29267;50.906;7.248;2023-06-24T03:55:34;13.75;;;5.75;;
43670;SDS011;29267;50.906;7.248;2023-06-24T03:58:00;7.38;;;4.93;;
43670;SDS011;29267;50.906;7.248;2023-06-24T04:00:26;8.98;;;5.18;;
43670;SDS011;29267;50.906;7.248;2023-06-24T04:02:51;9.05;;;5.50;;
43670;SDS011;29267;50.906;7.248;2023-06-24T04:05:18;8.48;;;5.65;;
43670;SDS011;29267;50.906;7.248;2023-06-24T04:07:44;10.23;;;5.60;;
43670;SDS011;29267;50.906;7.248;2023-06-24T04:10:12;10.00;;;5.70;;
43670;SDS011;29267;50.906;7.248;2023-06-24T04:12:38;12.07;;;5.53;;
43670;SDS011;29267;50.906;7.248;2023-06-24T04:15:04;11.57;;;5.50;;
43670;SDS011;29267;50.906;7.248;2023-06-24T04:17:30;10.10;;;5.47;;
43670;SDS011;29267;50.906;7.248;2023-06-24T04:19:56;7.25;;;5.15;;
43670;SDS011;29267;50.906;7.248;2023-06-24T04:22:23;8.38;;;5.78;;
43670;SDS011;29267;50.906;7.248;2023-06-24T04:24:48;9.90;;;5.30;;
43670;SDS011;29267;50.906;7.248;2023-06-24T04:27:14;8.85;;;5.78;;
43670;SDS011;29267;50.906;7.248;2023-06-24T04:29:39;6.55;;;5.03;;
43670;SDS011;29267;50.906;7.248;2023-06-24T04:32:05;8.15;;;5.43;;
43670;SDS011;29267;50.906;7.248;2023-06-24T04:34:31;12.60;;;5.95;;
43670;SDS011;29267;50.906;7.248;2023-06-24T04:36:57;7.68;;;5.13;;
43670;SDS011;29267;50.906;7.248;2023-06-24T04:39:23;6.55;;;5.10;;
43670;SDS011;29267;50.906;7.248;2023-06-24T04:41:48;7.63;;;4.65;;
43670;SDS011;29267;50.906;7.248;2023-06-24T04:44:14;6.40;;;4.25;;
43670;SDS011;29267;50.906;7.248;2023-06-24T04:46:39;5.35;;;4.35;;
43670;SDS011;29267;50.906;7.248;2023-06-24T04:49:05;8.20;;;3.80;;
43670;SDS011;29267;50.906;7.248;2023-06-24T04:51:31;5.78;;;3.55;;
43670;SDS011;29267;50.906;7.248;2023-06-24T04:53:57;6.10;;;3.70;;
43670;SDS011;29267;50.906;7.248;2023-06-24T04:56:23;4.97;;;3.65;;
43670;SDS011;29267;50.906;7.248;2023-06-24T04:58:49;6.10;;;3.88;;
43670;SDS011;29267;50.906;7.248;2023-06-24T05:01:15;8.50;;;3.67;;
43670;SDS011;29267;50.906;7.248;2023-06-24T05:03:41;9.02;;;3.85;;
43670;SDS011;29267;50.906;7.248;2023-06-24T05:06:06;5.38;;;3.70;;
43670;SDS011;29267;50.906;7.248;2023-06-24T05:08:32;5.63;;;3.42;;
43670;SDS011;29267;50.906;7.248;2023-06-24T05:10:58;5.65;;;3.67;;
43670;SDS011;29267;50.906;7.248;2023-06-24T05:13:25;4.75;;;3.45;;
43670;SDS011;29267;50.906;7.248;2023-06-24T05:15:52;5.30;;;3.35;;
43670;SDS011;29267;50.906;7.248;2023-06-24T05:18:17;6.75;;;3.97;;
43670;SDS011;29267;50.906;7.248;2023-06-24T05:20:43;5.63;;;3.58;;
43670;SDS011;29267;50.906;7.248;2023-06-24T05:23:08;5.43;;;3.65;;
43670;SDS011;29267;50.906;7.248;2023-06-24T05:25:34;4.40;;;3.45;;
43670;SDS011;29267;50.906;7.248;2023-06-24T05:28:00;6.45;;;3.88;;
43670;SDS011;29267;50.906;7.248;2023-06-24T05:30:26;5.30;;;3.25;;
43670;SDS011;29267;50.906;7.248;2023-06-24T05:32:51;4.82;;;3.35;;
43670;SDS011;29267;50.906;7.248;2023-06-24T05:35:17;4.38;;;3.10;;
43670;SDS011;29267;50.906;7.248;2023-06-24T05:37:42;5.13;;;3.20;;
43670;SDS011;29267;50.906;7.248;2023-06-24T05:40:08;5.15;;;3.45;;
43670;SDS011;29267;50.906;7.248;2023-06-24T05:42:34;5.40;;;3.28;;
43670;SDS011;29267;50.906;7.248;2023-06-24T05:45:00;5.40;;;3.90;;
43670;SDS011;29267;50.906;7.248;2023-06-24T05:47:25;6.45;;;3.30;;
43670;SDS011;29267;50.906;7.248;2023-06-24T05:49:51;4.78;;;3.22;;
43670;SDS011;29267;50.906;7.248;2023-06-24T05:52:16;6.22;;;3.40;;
43670;SDS011;29267;50.906;7.248;2023-06-24T05:54:42;4.32;;;3.17;;
43670;SDS011;29267;50.906;7.248;2023-06-24T05:57:07;5.90;;;3.78;;
43670;SDS011;29267;50.906;7.248;2023-06-24T05:59:34;4.30;;;3.38;;
43670;SDS011;29267;50.906;7.248;2023-06-24T06:01:59;5.07;;;3.67;;
43670;SDS011;29267;50.906;7.248;2023-06-24T06:04:27;3.88;;;2.90;;
43670;SDS011;29267;50.906;7.248;2023-06-24T06:06:52;7.45;;;3.60;;
43670;SDS011;29267;50.906;7.248;2023-06-24T06:09:18;4.60;;;3.78;;
43670;SDS011;29267;50.906;7.248;2023-06-24T06:11:45;7.15;;;4.10;;
43670;SDS011;29267;50.906;7.248;2023-06-24T06:14:10;5.72;;;3.53;;
43670;SDS011;29267;50.906;7.248;2023-06-24T06:16:36;5.45;;;3.95;;
43670;SDS011;29267;50.906;7.248;2023-06-24T06:19:02;5.03;;;3.33;;
43670;SDS011;29267;50.906;7.248;2023-06-24T06:21:28;3.90;;;3.00;;
43670;SDS011;29267;50.906;7.248;2023-06-24T06:23:53;6.25;;;3.00;;
43670;SDS011;29267;50.906;7.248;2023-06-24T06:26:19;4.22;;;3.70;;
43670;SDS011;29267;50.906;7.248;2023-06-24T06:28:44;4.85;;;3.67;;
43670;SDS011;29267;50.906;7.248;2023-06-24T06:31:12;3.78;;;3.38;;
43670;SDS011;29267;50.906;7.248;2023-06-24T06:33:38;4.03;;;2.80;;
43670;SDS011;29267;50.906;7.248;2023-06-24T06:36:03;5.97;;;3.40;;
43670;SDS011;29267;50.906;7.248;2023-06-24T06:38:29;4.28;;;2.90;;
43670;SDS011;29267;50.906;7.248;2023-06-24T06:40:55;5.20;;;3.53;;
43670;SDS011;29267;50.906;7.248;2023-06-24T06:43:20;5.43;;;3.40;;
43670;SDS011;29267;50.906;7.248;2023-06-24T06:45:46;9.70;;;3.92;;
43670;SDS011;29267;50.906;7.248;2023-06-24T06:48:12;5.45;;;3.40;;
43670;SDS011;29267;50.906;7.248;2023-06-24T06:50:37;5.63;;;3.45;;
43670;SDS011;29267;50.906;7.248;2023-06-24T06:53:03;5.18;;;4.22;;
43670;SDS011;29267;50.906;7.248;2023-06-24T06:55:28;7.30;;;4.80;;
43670;SDS011;29267;50.906;7.248;2023-06-24T06:57:54;6.28;;;4.97;;
43670;SDS011;29267;50.906;7.248;2023-06-24T07:00:20;5.72;;;3.63;;
43670;SDS011;29267;50.906;7.248;2023-06-24T07:02:46;4.20;;;3.78;;
43670;SDS011;29267;50.906;7.248;2023-06-24T07:05:11;5.93;;;4.38;;
43670;SDS011;29267;50.906;7.248;2023-06-24T07:07:37;6.22;;;4.15;;
43670;SDS011;29267;50.906;7.248;2023-06-24T07:10:04;9.00;;;5.47;;
43670;SDS011;29267;50.906;7.248;2023-06-24T07:12:30;10.98;;;5.70;;
43670;SDS011;29267;50.906;7.248;2023-06-24T07:14:56;5.70;;;4.60;;
43670;SDS011;29267;50.906;7.248;2023-06-24T07:17:21;8.02;;;5.35;;
43670;SDS011;29267;50.906;7.248;2023-06-24T07:19:47;9.43;;;5.10;;
43670;SDS011;29267;50.906;7.248;2023-06-24T07:22:13;7.78;;;5.28;;
43670;SDS011;29267;50.906;7.248;2023-06-24T07:24:39;7.28;;;5.75;;
43670;SDS011;29267;50.906;7.248;2023-06-24T07:27:05;8.70;;;5.03;;
43670;SDS011;29267;50.906;7.248;2023-06-24T07:29:31;8.48;;;5.57;;
43670;SDS011;29267;50.906;7.248;2023-06-24T07:31:56;9.68;;;4.90;;
43670;SDS011;29267;50.906;7.248;2023-06-24T07:34:22;6.53;;;5.80;;
43670;SDS011;29267;50.906;7.248;2023-06-24T07:36:47;9.68;;;6.00;;
43670;SDS011;29267;50.906;7.248;2023-06-24T07:39:15;8.25;;;5.80;;
43670;SDS011;29267;50.906;7.248;2023-06-24T07:41:41;10.65;;;6.40;;
43670;SDS011;29267;50.906;7.248;2023-06-24T07:44:07;8.55;;;7.30;;
43670;SDS011;29267;50.906;7.248;2023-06-24T07:46:33;9.38;;;6.32;;
43670;SDS011;29267;50.906;7.248;2023-06-24T07:48:59;15.07;;;7.32;;
43670;SDS011;29267;50.906;7.248;2023-06-24T07:51:25;8.98;;;6.63;;
43670;SDS011;29267;50.906;7.248;2023-06-24T07:53:50;8.50;;;6.43;;
43670;SDS011;29267;50.906;7.248;2023-06-24T07:56:16;10.20;;;6.60;;
43670;SDS011;29267;50.906;7.248;2023-06-24T07:58:41;13.98;;;6.57;;
43670;SDS011;29267;50.906;7.248;2023-06-24T08:01:07;11.32;;;7.78;;
43670;SDS011;29267;50.906;7.248;2023-06-24T08:03:33;10.45;;;6.75;;
43670;SDS011;29267;50.906;7.248;2023-06-24T08:05:59;11.07;;;6.35;;
43670;SDS011;29267;50.906;7.248;2023-06-24T08:08:25;9.73;;;6.65;;
43670;SDS011;29267;50.906;7.248;2023-06-24T08:10:50;7.85;;;6.25;;
43670;SDS011;29267;50.906;7.248;2023-06-24T08:13:16;10.88;;;6.60;;
43670;SDS011;29267;50.906;7.248;2023-06-24T08:15:42;10.00;;;6.43;;
43670;SDS011;29267;50.906;7.248;2023-06-24T08:18:07;8.70;;;6.10;;
43670;SDS011;29267;50.906;7.248;2023-06-24T08:20:33;10.73;;;7.40;;
43670;SDS011;29267;50.906;7.248;2023-06-24T08:22:58;10.05;;;7.18;;
43670;SDS011;29267;50.906;7.248;2023-06-24T08:25:24;9.15;;;6.80;;
43670;SDS011;29267;50.906;7.248;2023-06-24T08:28:08;8.95;;;6.47;;
43670;SDS011;29267;50.906;7.248;2023-06-24T08:30:34;14.57;;;7.65;;
43670;SDS011;29267;50.906;7.248;2023-06-24T08:32:59;12.02;;;7.85;;
43670;SDS011;29267;50.906;7.248;2023-06-24T08:35:25;9.65;;;6.47;;
43670;SDS011;29267;50.906;7.248;2023-06-24T08:37:51;8.85;;;6.90;;
43670;SDS011;29267;50.906;7.248;2023-06-24T08:40:16;14.70;;;7.53;;
43670;SDS011;29267;50.906;7.248;2023-06-24T08:42:43;11.05;;;6.90;;
43670;SDS011;29267;50.906;7.248;2023-06-24T08:45:09;9.05;;;6.75;;
43670;SDS011;29267;50.906;7.248;2023-06-24T08:47:34;10.95;;;7.30;;
43670;SDS011;29267;50.906;7.248;2023-06-24T08:50:04;9.63;;;6.68;;
43670;SDS011;29267;50.906;7.248;2023-06-24T08:52:35;8.75;;;6.30;;
43670;SDS011;29267;50.906;7.248;2023-06-24T08:55:03;14.35;;;6.55;;
43670;SDS011;29267;50.906;7.248;2023-06-24T08:57:32;10.93;;;6.38;;
43670;SDS011;29267;50.906;7.248;2023-06-24T08:59:57;8.98;;;6.90;;
43670;SDS011;29267;50.906;7.248;2023-06-24T09:02:23;11.35;;;6.75;;
43670;SDS011;29267;50.906;7.248;2023-06-24T09:04:50;14.45;;;5.78;;
43670;SDS011;29267;50.906;7.248;2023-06-24T09:07:26;12.70;;;6.00;;
43670;SDS011;29267;50.906;7.248;2023-06-24T09:09:55;6.00;;;5.18;;
43670;SDS011;29267;50.906;7.248;2023-06-24T09:12:21;9.75;;;5.20;;
43670;SDS011;29267;50.906;7.248;2023-06-24T09:14:49;5.43;;;4.45;;
43670;SDS011;29267;50.906;7.248;2023-06-24T09:17:16;9.57;;;5.32;;
43670;SDS011;29267;50.906;7.248;2023-06-24T09:19:42;8.38;;;5.38;;
43670;SDS011;29267;50.906;7.248;2023-06-24T09:22:08;9.65;;;6.18;;
43670;SDS011;29267;50.906;7.248;2023-06-24T09:24:41;7.45;;;5.40;;
43670;SDS011;29267;50.906;7.248;2023-06-24T09:27:07;9.02;;;5.13;;
43670;SDS011;29267;50.906;7.248;2023-06-24T09:29:34;5.70;;;4.80;;
43670;SDS011;29267;50.906;7.248;2023-06-24T09:32:04;13.10;;;5.40;;
43670;SDS011;29267;50.906;7.248;2023-06-24T09:34:30;11.10;;;5.93;;
43670;SDS011;29267;50.906;7.248;2023-06-24T09:36:56;8.02;;;5.38;;
43670;SDS011;29267;50.906;7.248;2023-06-24T09:39:23;10.85;;;4.85;;
43670;SDS011;29267;50.906;7.248;2023-06-24T09:41:54;7.28;;;4.60;;
43670;SDS011;29267;50.906;7.248;2023-06-24T09:44:21;6.70;;;4.90;;
43670;SDS011;29267;50.906;7.248;2023-06-24T09:46:47;5.38;;;3.92;;
43670;SDS011;29267;50.906;7.248;2023-06-24T09:49:12;6.10;;;4.55;;
43670;SDS011;29267;50.906;7.248;2023-06-24T09:51:39;12.77;;;5.05;;
43670;SDS011;29267;50.906;7.248;2023-06-24T09:54:08;6.55;;;4.50;;
43670;SDS011;29267;50.906;7.248;2023-06-24T09:56:35;5.50;;;3.78;;
43670;SDS011;29267;50.906;7.248;2023-06-24T09:59:05;6.00;;;3.60;;
43670;SDS011;29267;50.906;7.248;2023-06-24T10:01:32;5.55;;;4.13;;
43670;SDS011;29267;50.906;7.248;2023-06-24T10:04:00;8.35;;;4.22;;
43670;SDS011;29267;50.906;7.248;2023-06-24T10:06:26;6.75;;;3.92;;
43670;SDS011;29267;50.906;7.248;2023-06-24T10:08:52;6.63;;;5.13;;
43670;SDS011;29267;50.906;7.248;2023-06-24T10:11:18;11.63;;;5.32;;
43670;SDS011;29267;50.906;7.248;2023-06-24T10:13:44;7.05;;;4.82;;
43670;SDS011;29267;50.906;7.248;2023-06-24T10:16:10;10.30;;;4.75;;
43670;SDS011;29267;50.906;7.248;2023-06-24T10:18:36;7.18;;;5.03;;
43670;SDS011;29267;50.906;7.248;2023-06-24T10:21:04;6.03;;;4.32;;
43670;SDS011;29267;50.906;7.248;2023-06-24T10:23:34;7.65;;;4.22;;
43670;SDS011;29267;50.906;7.248;2023-06-24T10:36:54;6.40;;;3.65;;
43670;SDS011;29267;50.906;7.248;2023-06-24T10:44:48;5.95;;;3.17;;
43670;SDS011;29267;50.906;7.248;2023-06-24T10:47:15;5.20;;;3.70;;
43670;SDS011;29267;50.906;7.248;2023-06-24T10:49:41;5.57;;;3.30;;
43670;SDS011;29267;50.906;7.248;2023-06-24T10:52:07;7.80;;;4.30;;
43670;SDS011;29267;50.906;7.248;2023-06-24T10:54:39;7.20;;;3.97;;
43670;SDS011;29267;50.906;7.248;2023-06-24T10:57:10;4.75;;;3.28;;
43670;SDS011;29267;50.906;7.248;2023-06-24T10:59:43;5.72;;;3.65;;
43670;SDS011;29267;50.906;7.248;2023-06-24T11:02:16;6.78;;;4.03;;
43670;SDS011;29267;50.906;7.248;2023-06-24T11:04:43;5.88;;;2.90;;
43670;SDS011;29267;50.906;7.248;2023-06-24T11:07:13;12.00;;;3.53;;
43670;SDS011;29267;50.906;7.248;2023-06-24T11:09:40;6.18;;;3.80;;
43670;SDS011;29267;50.906;7.248;2023-06-24T11:12:09;4.70;;;3.00;;
43670;SDS011;29267;50.906;7.248;2023-06-24T11:14:35;4.88;;;3.22;;
43670;SDS011;29267;50.906;7.248;2023-06-24T11:17:04;4.95;;;2.97;;
43670;SDS011;29267;50.906;7.248;2023-06-24T11:19:30;5.47;;;3.20;;
43670;SDS011;29267;50.906;7.248;2023-06-24T11:21:59;6.82;;;3.55;;
43670;SDS011;29267;50.906;7.248;2023-06-24T11:24:26;4.13;;;2.90;;
43670;SDS011;29267;50.906;7.248;2023-06-24T11:26:52;7.82;;;3.00;;
43670;SDS011;29267;50.906;7.248;2023-06-24T11:29:18;6.38;;;3.55;;
43670;SDS011;29267;50.906;7.248;2023-06-24T11:31:44;4.82;;;3.00;;
43670;SDS011;29267;50.906;7.248;2023-06-24T11:34:10;6.18;;;3.42;;
43670;SDS011;29267;50.906;7.248;2023-06-24T11:36:36;7.43;;;3.78;;
43670;SDS011;29267;50.906;7.248;2023-06-24T11:39:01;5.80;;;3.35;;
43670;SDS011;29267;50.906;7.248;2023-06-24T11:41:28;4.72;;;2.80;;
43670;SDS011;29267;50.906;7.248;2023-06-24T11:43:53;6.75;;;3.33;;
43670;SDS011;29267;50.906;7.248;2023-06-24T11:46:28;4.35;;;2.90;;
43670;SDS011;29267;50.906;7.248;2023-06-24T11:51:30;4.63;;;3.28;;
43670;SDS011;29267;50.906;7.248;2023-06-24T11:53:58;6.25;;;3.63;;
43670;SDS011;29267;50.906;7.248;2023-06-24T11:56:37;3.92;;;2.75;;
43670;SDS011;29267;50.906;7.248;2023-06-24T11:59:04;8.07;;;3.13;;
43670;SDS011;29267;50.906;7.248;2023-06-24T12:01:34;4.95;;;3.42;;
43670;SDS011;29267;50.906;7.248;2023-06-24T12:04:09;6.47;;;3.13;;
43670;SDS011;29267;50.906;7.248;2023-06-24T12:09:01;5.30;;;3.33;;
43670;SDS011;29267;50.906;7.248;2023-06-24T12:11:27;5.57;;;3.58;;
43670;SDS011;29267;50.906;7.248;2023-06-24T12:13:52;5.28;;;3.22;;
43670;SDS011;29267;50.906;7.248;2023-06-24T12:16:18;7.22;;;3.10;;
43670;SDS011;29267;50.906;7.248;2023-06-24T12:18:44;3.58;;;2.53;;
43670;SDS011;29267;50.906;7.248;2023-06-24T12:21:09;5.85;;;3.30;;
43670;SDS011;29267;50.906;7.248;2023-06-24T12:23:35;5.50;;;2.80;;
43670;SDS011;29267;50.906;7.248;2023-06-24T12:26:01;5.57;;;3.20;;
43670;SDS011;29267;50.906;7.248;2023-06-24T12:28:27;4.85;;;3.20;;
43670;SDS011;29267;50.906;7.248;2023-06-24T12:30:52;5.72;;;3.25;;
43670;SDS011;29267;50.906;7.248;2023-06-24T12:33:18;7.00;;;3.00;;
43670;SDS011;29267;50.906;7.248;2023-06-24T12:35:45;6.80;;;4.05;;
43670;SDS011;29267;50.906;7.248;2023-06-24T12:38:11;6.70;;;3.17;;
43670;SDS011;29267;50.906;7.248;2023-06-24T12:40:37;4.93;;;3.63;;
43670;SDS011;29267;50.906;7.248;2023-06-24T12:43:02;5.60;;;3.70;;
43670;SDS011;29267;50.906;7.248;2023-06-24T12:45:29;5.82;;;3.20;;
43670;SDS011;29267;50.906;7.248;2023-06-24T12:47:55;4.38;;;3.10;;
43670;SDS011;29267;50.906;7.248;2023-06-24T12:50:20;7.43;;;3.05;;
43670;SDS011;29267;50.906;7.248;2023-06-24T12:52:46;12.85;;;3.60;;
43670;SDS011;29267;50.906;7.248;2023-06-24T12:55:11;6.85;;;2.92;;
43670;SDS011;29267;50.906;7.248;2023-06-24T12:57:37;4.40;;;2.63;;
43670;SDS011;29267;50.906;7.248;2023-06-24T13:00:03;4.65;;;3.05;;
43670;SDS011;29267;50.906;7.248;2023-06-24T13:02:33;8.40;;;2.58;;
43670;SDS011;29267;50.906;7.248;2023-06-24T13:05:00;5.22;;;2.85;;
43670;SDS011;29267;50.906;7.248;2023-06-24T13:07:26;4.75;;;2.88;;
43670;SDS011;29267;50.906;7.248;2023-06-24T13:09:51;4.22;;;3.00;;
43670;SDS011;29267;50.906;7.248;2023-06-24T13:12:17;5.82;;;3.15;;
43670;SDS011;29267;50.906;7.248;2023-06-24T13:14:42;7.13;;;3.17;;
43670;SDS011;29267;50.906;7.248;2023-06-24T13:17:08;8.10;;;3.42;;
43670;SDS011;29267;50.906;7.248;2023-06-24T13:19:33;4.75;;;2.65;;
43670;SDS011;29267;50.906;7.248;2023-06-24T13:21:59;4.20;;;2.70;;
43670;SDS011;29267;50.906;7.248;2023-06-24T13:24:25;4.90;;;3.05;;
43670;SDS011;29267;50.906;7.248;2023-06-24T13:26:51;7.32;;;2.55;;
43670;SDS011;29267;50.906;7.248;2023-06-24T13:29:17;4.05;;;2.65;;
43670;SDS011;29267;50.906;7.248;2023-06-24T13:31:45;6.18;;;3.38;;
43670;SDS011;29267;50.906;7.248;2023-06-24T13:34:10;5.70;;;3.22;;
43670;SDS011;29267;50.906;7.248;2023-06-24T13:36:37;8.10;;;2.97;;
43670;SDS011;29267;50.906;7.248;2023-06-24T13:39:04;4.00;;;2.42;;
43670;SDS011;29267;50.906;7.248;2023-06-24T13:41:30;3.50;;;2.88;;
43670;SDS011;29267;50.906;7.248;2023-06-24T13:44:00;3.92;;;2.78;;
43670;SDS011;29267;50.906;7.248;2023-06-24T13:46:27;4.70;;;2.85;;
43670;SDS011;29267;50.906;7.248;2023-06-24T13:48:54;3.97;;;2.78;;
43670;SDS011;29267;50.906;7.248;2023-06-24T13:51:20;5.82;;;2.92;;
43670;SDS011;29267;50.906;7.248;2023-06-24T13:53:47;4.45;;;3.00;;
43670;SDS011;29267;50.906;7.248;2023-06-24T13:56:14;4.53;;;3.20;;
43670;SDS011;29267;50.906;7.248;2023-06-24T13:58:40;6.15;;;3.10;;
43670;SDS011;29267;50.906;7.248;2023-06-24T14:01:05;6.03;;;2.97;;
43670;SDS011;29267;50.906;7.248;2023-06-24T14:03:31;4.10;;;2.97;;
43670;SDS011;29267;50.906;7.248;2023-06-24T14:05:56;6.85;;;3.45;;
43670;SDS011;29267;50.906;7.248;2023-06-24T14:08:23;8.55;;;4.43;;
43670;SDS011;29267;50.906;7.248;2023-06-24T14:10:48;5.55;;;2.80;;
43670;SDS011;29267;50.906;7.248;2023-06-24T14:13:14;7.43;;;2.80;;
43670;SDS011;29267;50.906;7.248;2023-06-24T14:15:40;3.22;;;2.72;;
43670;SDS011;29267;50.906;7.248;2023-06-24T14:18:06;5.85;;;3.55;;
43670;SDS011;29267;50.906;7.248;2023-06-24T14:20:31;9.90;;;2.97;;
43670;SDS011;29267;50.906;7.248;2023-06-24T14:22:57;4.80;;;2.80;;
43670;SDS011;29267;50.906;7.248;2023-06-24T14:25:22;5.28;;;3.72;;
43670;SDS011;29267;50.906;7.248;2023-06-24T14:27:49;4.35;;;3.20;;
43670;SDS011;29267;50.906;7.248;2023-06-24T14:30:15;9.35;;;3.90;;
43670;SDS011;29267;50.906;7.248;2023-06-24T14:32:40;5.28;;;3.38;;
43670;SDS011;29267;50.906;7.248;2023-06-24T14:35:06;5.05;;;3.38;;
43670;SDS011;29267;50.906;7.248;2023-06-24T14:37:33;4.93;;;2.95;;
43670;SDS011;29267;50.906;7.248;2023-06-24T14:39:58;5.95;;;2.97;;
43670;SDS011;29267;50.906;7.248;2023-06-24T14:42:24;5.53;;;3.53;;
43670;SDS011;29267;50.906;7.248;2023-06-24T14:44:49;5.28;;;2.90;;
43670;SDS011;29267;50.906;7.248;2023-06-24T14:47:15;5.43;;;3.35;;
43670;SDS011;29267;50.906;7.248;2023-06-24T14:49:40;6.70;;;3.70;;
43670;SDS011;29267;50.906;7.248;2023-06-24T14:52:06;5.97;;;3.28;;
43670;SDS011;29267;50.906;7.248;2023-06-24T14:54:31;4.88;;;3.05;;
43670;SDS011;29267;50.906;7.248;2023-06-24T14:56:57;5.45;;;3.05;;
43670;SDS011;29267;50.906;7.248;2023-06-24T14:59:23;6.47;;;3.05;;
43670;SDS011;29267;50.906;7.248;2023-06-24T15:01:48;4.43;;;3.13;;
43670;SDS011;29267;50.906;7.248;2023-06-24T15:04:14;5.10;;;3.47;;
43670;SDS011;29267;50.906;7.248;2023-06-24T15:06:39;6.47;;;4.63;;
43670;SDS011;29267;50.906;7.248;2023-06-24T15:09:05;8.20;;;4.35;;
43670;SDS011;29267;50.906;7.248;2023-06-24T15:11:30;8.15;;;3.38;;